Decoded Metar for LFSL (BRIVE in FRANCE) (IATA:N/A) | Meteo·Mobile Aviation Weather
aviador You're here:

LFSL Decoded Metar

BRIVE in FRANCE
Report Time2019-10-19 22:30:00
UTC Time2019-10-19 22:43:04
Flight Rules mvfr MVFR
WindCalm
Visibility9999 m
Phenomena:N/A
Clouds:Overcast 029 Hf
Ceiling2,900 ft
Temp13°C (ISA 0)
Dew Point13°C (100% RH)
QNH1003 hPa
Density Alt1,562 ft
Elevation1,016 ft
Report Wrong Elevation
Raw Report
LFSL 192230Z AUTO 00000KT 9999 OVC029 13/13 Q1003=

Extra information for LFSL:More info

Metar Taf Metar & Taf Last 4 Metars F.Rules Stats Wind Profile Meteogram Temp Stats Airport Information Weather charts Add Link Nearby VenuesMetar ALERT Operation Metar Decoded Social comments